sensor_id;sensor_type;location;lat;lon;timestamp;P1;durP1;ratioP1;P2;durP2;ratioP2
1603;SDS011;795;49.296;11.348;2022-07-10T00:01:31;7.00;;;6.33;;
1603;SDS011;795;49.296;11.348;2022-07-10T00:03:58;6.93;;;6.33;;
1603;SDS011;795;49.296;11.348;2022-07-10T00:06:25;6.87;;;6.27;;
1603;SDS011;795;49.296;11.348;2022-07-10T00:08:52;6.20;;;5.60;;
1603;SDS011;795;49.296;11.348;2022-07-10T00:11:21;6.20;;;5.80;;
1603;SDS011;795;49.296;11.348;2022-07-10T00:13:48;6.57;;;6.10;;
1603;SDS011;795;49.296;11.348;2022-07-10T00:16:15;7.40;;;6.87;;
1603;SDS011;795;49.296;11.348;2022-07-10T00:18:42;5.73;;;5.33;;
1603;SDS011;795;49.296;11.348;2022-07-10T00:21:09;6.67;;;6.07;;
1603;SDS011;795;49.296;11.348;2022-07-10T00:23:36;6.67;;;6.17;;
1603;SDS011;795;49.296;11.348;2022-07-10T00:26:03;7.27;;;6.70;;
1603;SDS011;795;49.296;11.348;2022-07-10T00:28:30;7.47;;;6.67;;
1603;SDS011;795;49.296;11.348;2022-07-10T00:30:57;7.00;;;6.40;;
1603;SDS011;795;49.296;11.348;2022-07-10T00:33:24;7.00;;;6.50;;
1603;SDS011;795;49.296;11.348;2022-07-10T00:35:51;7.70;;;7.10;;
1603;SDS011;795;49.296;11.348;2022-07-10T00:38:18;7.47;;;6.87;;
1603;SDS011;795;49.296;11.348;2022-07-10T00:40:45;7.07;;;6.50;;
1603;SDS011;795;49.296;11.348;2022-07-10T00:43:12;8.43;;;6.33;;
1603;SDS011;795;49.296;11.348;2022-07-10T00:45:39;7.43;;;6.83;;
1603;SDS011;795;49.296;11.348;2022-07-10T00:48:06;8.07;;;6.47;;
1603;SDS011;795;49.296;11.348;2022-07-10T00:50:35;8.13;;;7.50;;
1603;SDS011;795;49.296;11.348;2022-07-10T00:53:02;7.97;;;7.37;;
1603;SDS011;795;49.296;11.348;2022-07-10T00:55:30;8.23;;;6.70;;
1603;SDS011;795;49.296;11.348;2022-07-10T00:58:02;9.13;;;8.33;;
1603;SDS011;795;49.296;11.348;2022-07-10T01:00:34;7.83;;;7.23;;
1603;SDS011;795;49.296;11.348;2022-07-10T01:03:04;8.13;;;7.47;;
1603;SDS011;795;49.296;11.348;2022-07-10T01:05:32;8.80;;;7.90;;
1603;SDS011;795;49.296;11.348;2022-07-10T01:07:59;7.70;;;7.20;;
1603;SDS011;795;49.296;11.348;2022-07-10T01:10:26;8.07;;;7.40;;
1603;SDS011;795;49.296;11.348;2022-07-10T01:12:53;7.37;;;6.73;;
1603;SDS011;795;49.296;11.348;2022-07-10T01:15:20;9.30;;;8.30;;
1603;SDS011;795;49.296;11.348;2022-07-10T01:17:47;8.40;;;7.70;;
1603;SDS011;795;49.296;11.348;2022-07-10T01:20:15;8.80;;;7.90;;
1603;SDS011;795;49.296;11.348;2022-07-10T01:22:42;11.80;;;8.87;;
1603;SDS011;795;49.296;11.348;2022-07-10T01:25:10;9.43;;;8.60;;
1603;SDS011;795;49.296;11.348;2022-07-10T01:27:37;8.20;;;7.50;;
1603;SDS011;795;49.296;11.348;2022-07-10T01:30:04;8.70;;;7.90;;
1603;SDS011;795;49.296;11.348;2022-07-10T01:32:36;8.63;;;7.70;;
1603;SDS011;795;49.296;11.348;2022-07-10T01:35:05;8.40;;;7.70;;
1603;SDS011;795;49.296;11.348;2022-07-10T01:37:34;10.00;;;9.00;;
1603;SDS011;795;49.296;11.348;2022-07-10T01:40:01;9.00;;;8.20;;
1603;SDS011;795;49.296;11.348;2022-07-10T01:42:29;9.23;;;8.50;;
1603;SDS011;795;49.296;11.348;2022-07-10T01:44:56;11.40;;;10.37;;
1603;SDS011;795;49.296;11.348;2022-07-10T01:47:31;8.60;;;7.90;;
1603;SDS011;795;49.296;11.348;2022-07-10T01:49:58;9.80;;;9.10;;
1603;SDS011;795;49.296;11.348;2022-07-10T01:52:25;10.37;;;9.10;;
1603;SDS011;795;49.296;11.348;2022-07-10T01:54:52;10.00;;;9.10;;
1603;SDS011;795;49.296;11.348;2022-07-10T01:57:19;10.13;;;9.33;;
1603;SDS011;795;49.296;11.348;2022-07-10T01:59:46;10.03;;;9.33;;
1603;SDS011;795;49.296;11.348;2022-07-10T02:02:13;10.60;;;9.67;;
1603;SDS011;795;49.296;11.348;2022-07-10T02:04:40;9.83;;;9.07;;
1603;SDS011;795;49.296;11.348;2022-07-10T02:07:07;10.17;;;9.23;;
1603;SDS011;795;49.296;11.348;2022-07-10T02:09:42;10.40;;;9.37;;
1603;SDS011;795;49.296;11.348;2022-07-10T02:12:12;10.20;;;9.40;;
1603;SDS011;795;49.296;11.348;2022-07-10T02:14:41;9.63;;;8.93;;
1603;SDS011;795;49.296;11.348;2022-07-10T02:17:09;11.77;;;10.67;;
1603;SDS011;795;49.296;11.348;2022-07-10T02:19:37;11.77;;;10.87;;
1603;SDS011;795;49.296;11.348;2022-07-10T02:22:04;11.13;;;10.27;;
1603;SDS011;795;49.296;11.348;2022-07-10T02:24:31;12.63;;;11.53;;
1603;SDS011;795;49.296;11.348;2022-07-10T02:26:58;11.50;;;10.40;;
1603;SDS011;795;49.296;11.348;2022-07-10T02:29:25;11.93;;;10.77;;
1603;SDS011;795;49.296;11.348;2022-07-10T02:31:52;12.30;;;11.10;;
1603;SDS011;795;49.296;11.348;2022-07-10T02:34:19;12.30;;;11.30;;
1603;SDS011;795;49.296;11.348;2022-07-10T02:36:46;11.30;;;10.23;;
1603;SDS011;795;49.296;11.348;2022-07-10T02:39:13;12.17;;;11.17;;
1603;SDS011;795;49.296;11.348;2022-07-10T02:41:40;11.70;;;10.70;;
1603;SDS011;795;49.296;11.348;2022-07-10T02:44:07;12.77;;;11.53;;
1603;SDS011;795;49.296;11.348;2022-07-10T02:46:34;11.63;;;10.63;;
1603;SDS011;795;49.296;11.348;2022-07-10T02:49:01;11.83;;;10.83;;
1603;SDS011;795;49.296;11.348;2022-07-10T02:51:30;10.63;;;9.93;;
1603;SDS011;795;49.296;11.348;2022-07-10T02:53:57;10.27;;;9.33;;
1603;SDS011;795;49.296;11.348;2022-07-10T02:56:24;9.93;;;9.13;;
1603;SDS011;795;49.296;11.348;2022-07-10T02:58:51;10.30;;;9.50;;
1603;SDS011;795;49.296;11.348;2022-07-10T03:01:18;10.30;;;9.40;;
1603;SDS011;795;49.296;11.348;2022-07-10T03:03:45;11.53;;;10.17;;
1603;SDS011;795;49.296;11.348;2022-07-10T03:06:12;10.23;;;9.50;;
1603;SDS011;795;49.296;11.348;2022-07-10T03:08:40;11.20;;;10.20;;
1603;SDS011;795;49.296;11.348;2022-07-10T03:11:08;14.00;;;11.20;;
1603;SDS011;795;49.296;11.348;2022-07-10T03:13:35;11.23;;;10.13;;
1603;SDS011;795;49.296;11.348;2022-07-10T03:16:02;10.90;;;10.07;;
1603;SDS011;795;49.296;11.348;2022-07-10T03:18:30;9.87;;;8.93;;
1603;SDS011;795;49.296;11.348;2022-07-10T03:20:57;10.57;;;9.57;;
1603;SDS011;795;49.296;11.348;2022-07-10T03:23:24;10.23;;;9.33;;
1603;SDS011;795;49.296;11.348;2022-07-10T03:25:51;13.40;;;9.70;;
1603;SDS011;795;49.296;11.348;2022-07-10T03:28:19;9.40;;;8.53;;
1603;SDS011;795;49.296;11.348;2022-07-10T03:30:46;9.67;;;8.77;;
1603;SDS011;795;49.296;11.348;2022-07-10T03:33:13;9.10;;;8.40;;
1603;SDS011;795;49.296;11.348;2022-07-10T03:35:39;9.63;;;8.80;;
1603;SDS011;795;49.296;11.348;2022-07-10T03:38:06;9.87;;;8.97;;
1603;SDS011;795;49.296;11.348;2022-07-10T03:40:33;7.87;;;7.27;;
1603;SDS011;795;49.296;11.348;2022-07-10T03:43:00;8.77;;;8.17;;
1603;SDS011;795;49.296;11.348;2022-07-10T03:45:27;9.60;;;8.83;;
1603;SDS011;795;49.296;11.348;2022-07-10T03:47:54;10.83;;;10.03;;
1603;SDS011;795;49.296;11.348;2022-07-10T03:50:21;8.90;;;8.20;;
1603;SDS011;795;49.296;11.348;2022-07-10T03:52:48;9.30;;;8.60;;
1603;SDS011;795;49.296;11.348;2022-07-10T03:55:15;9.03;;;8.23;;
1603;SDS011;795;49.296;11.348;2022-07-10T03:57:42;14.50;;;8.63;;
1603;SDS011;795;49.296;11.348;2022-07-10T04:00:23;8.80;;;8.00;;
1603;SDS011;795;49.296;11.348;2022-07-10T04:02:58;11.77;;;7.83;;
1603;SDS011;795;49.296;11.348;2022-07-10T04:05:29;8.43;;;7.73;;
1603;SDS011;795;49.296;11.348;2022-07-10T04:07:57;9.30;;;8.50;;
1603;SDS011;795;49.296;11.348;2022-07-10T04:10:26;8.60;;;7.80;;
1603;SDS011;795;49.296;11.348;2022-07-10T04:12:55;9.20;;;8.50;;
1603;SDS011;795;49.296;11.348;2022-07-10T04:15:22;8.80;;;8.00;;
1603;SDS011;795;49.296;11.348;2022-07-10T04:17:51;8.83;;;8.17;;
1603;SDS011;795;49.296;11.348;2022-07-10T04:20:18;7.83;;;7.20;;
1603;SDS011;795;49.296;11.348;2022-07-10T04:22:46;7.70;;;7.00;;
1603;SDS011;795;49.296;11.348;2022-07-10T04:25:14;7.00;;;6.40;;
1603;SDS011;795;49.296;11.348;2022-07-10T04:27:41;7.10;;;5.57;;
1603;SDS011;795;49.296;11.348;2022-07-10T04:30:08;7.00;;;6.40;;
1603;SDS011;795;49.296;11.348;2022-07-10T04:32:36;7.97;;;6.73;;
1603;SDS011;795;49.296;11.348;2022-07-10T04:35:03;9.87;;;6.23;;
1603;SDS011;795;49.296;11.348;2022-07-10T04:37:31;7.83;;;5.90;;
1603;SDS011;795;49.296;11.348;2022-07-10T04:40:00;6.73;;;5.90;;
1603;SDS011;795;49.296;11.348;2022-07-10T04:42:27;6.33;;;5.67;;
1603;SDS011;795;49.296;11.348;2022-07-10T04:44:54;5.70;;;5.10;;
1603;SDS011;795;49.296;11.348;2022-07-10T04:47:21;7.60;;;5.77;;
1603;SDS011;795;49.296;11.348;2022-07-10T04:49:48;5.77;;;5.27;;
1603;SDS011;795;49.296;11.348;2022-07-10T04:52:15;5.13;;;4.63;;
1603;SDS011;795;49.296;11.348;2022-07-10T04:54:42;4.83;;;4.53;;
1603;SDS011;795;49.296;11.348;2022-07-10T04:57:09;5.40;;;4.73;;
1603;SDS011;795;49.296;11.348;2022-07-10T04:59:36;7.03;;;4.60;;
1603;SDS011;795;49.296;11.348;2022-07-10T05:02:03;5.03;;;4.63;;
1603;SDS011;795;49.296;11.348;2022-07-10T05:04:30;5.37;;;4.80;;
1603;SDS011;795;49.296;11.348;2022-07-10T05:06:57;6.50;;;4.63;;
1603;SDS011;795;49.296;11.348;2022-07-10T05:09:24;6.43;;;4.70;;
1603;SDS011;795;49.296;11.348;2022-07-10T05:11:51;5.27;;;4.47;;
1603;SDS011;795;49.296;11.348;2022-07-10T05:14:18;10.83;;;4.70;;
1603;SDS011;795;49.296;11.348;2022-07-10T05:16:45;4.10;;;3.70;;
1603;SDS011;795;49.296;11.348;2022-07-10T05:19:12;5.43;;;3.83;;
1603;SDS011;795;49.296;11.348;2022-07-10T05:21:40;4.77;;;3.30;;
1603;SDS011;795;49.296;11.348;2022-07-10T05:24:07;5.77;;;3.37;;
1603;SDS011;795;49.296;11.348;2022-07-10T05:26:34;3.90;;;3.30;;
1603;SDS011;795;49.296;11.348;2022-07-10T05:29:02;5.10;;;3.03;;
1603;SDS011;795;49.296;11.348;2022-07-10T05:31:29;5.30;;;3.43;;
1603;SDS011;795;49.296;11.348;2022-07-10T05:33:56;12.07;;;4.30;;
1603;SDS011;795;49.296;11.348;2022-07-10T05:36:23;5.37;;;2.60;;
1603;SDS011;795;49.296;11.348;2022-07-10T05:38:50;10.43;;;3.27;;
1603;SDS011;795;49.296;11.348;2022-07-10T05:41:17;6.10;;;3.00;;
1603;SDS011;795;49.296;11.348;2022-07-10T05:43:44;4.37;;;2.60;;
1603;SDS011;795;49.296;11.348;2022-07-10T05:46:11;3.10;;;2.80;;
1603;SDS011;795;49.296;11.348;2022-07-10T05:48:38;4.10;;;2.80;;
1603;SDS011;795;49.296;11.348;2022-07-10T05:51:06;5.40;;;2.50;;
1603;SDS011;795;49.296;11.348;2022-07-10T05:53:53;5.33;;;2.00;;
1603;SDS011;795;49.296;11.348;2022-07-10T05:56:20;5.10;;;2.83;;
1603;SDS011;795;49.296;11.348;2022-07-10T05:58:47;3.77;;;2.70;;
1603;SDS011;795;49.296;11.348;2022-07-10T06:01:15;2.97;;;2.67;;
1603;SDS011;795;49.296;11.348;2022-07-10T06:03:42;3.80;;;2.53;;
1603;SDS011;795;49.296;11.348;2022-07-10T06:06:09;2.50;;;2.30;;
1603;SDS011;795;49.296;11.348;2022-07-10T06:08:39;6.97;;;2.80;;
1603;SDS011;795;49.296;11.348;2022-07-10T06:11:11;3.53;;;2.37;;
1603;SDS011;795;49.296;11.348;2022-07-10T06:13:39;6.33;;;2.17;;
1603;SDS011;795;49.296;11.348;2022-07-10T06:16:06;3.80;;;2.37;;
1603;SDS011;795;49.296;11.348;2022-07-10T06:18:33;4.30;;;2.00;;
1603;SDS011;795;49.296;11.348;2022-07-10T06:21:00;3.87;;;2.00;;
1603;SDS011;795;49.296;11.348;2022-07-10T06:23:29;4.53;;;2.17;;
1603;SDS011;795;49.296;11.348;2022-07-10T06:25:56;4.90;;;2.43;;
1603;SDS011;795;49.296;11.348;2022-07-10T06:28:23;3.20;;;2.10;;
1603;SDS011;795;49.296;11.348;2022-07-10T06:30:50;4.93;;;2.17;;
1603;SDS011;795;49.296;11.348;2022-07-10T06:33:25;3.30;;;1.97;;
1603;SDS011;795;49.296;11.348;2022-07-10T06:35:52;2.70;;;1.50;;
1603;SDS011;795;49.296;11.348;2022-07-10T06:38:19;3.20;;;2.10;;
1603;SDS011;795;49.296;11.348;2022-07-10T06:40:46;2.00;;;1.90;;
1603;SDS011;795;49.296;11.348;2022-07-10T06:43:14;6.03;;;2.40;;
1603;SDS011;795;49.296;11.348;2022-07-10T06:45:41;3.63;;;1.67;;
1603;SDS011;795;49.296;11.348;2022-07-10T06:48:08;3.27;;;1.80;;
1603;SDS011;795;49.296;11.348;2022-07-10T06:50:36;4.00;;;2.03;;
1603;SDS011;795;49.296;11.348;2022-07-10T06:53:03;6.70;;;2.27;;
1603;SDS011;795;49.296;11.348;2022-07-10T06:55:32;4.23;;;1.87;;
1603;SDS011;795;49.296;11.348;2022-07-10T06:58:00;3.33;;;1.87;;
1603;SDS011;795;49.296;11.348;2022-07-10T07:00:27;5.93;;;1.80;;
1603;SDS011;795;49.296;11.348;2022-07-10T07:02:55;4.93;;;2.57;;
1603;SDS011;795;49.296;11.348;2022-07-10T07:05:22;4.57;;;1.90;;
1603;SDS011;795;49.296;11.348;2022-07-10T07:07:49;3.63;;;2.53;;
1603;SDS011;795;49.296;11.348;2022-07-10T07:10:16;2.80;;;1.80;;
1603;SDS011;795;49.296;11.348;2022-07-10T07:12:43;2.80;;;2.20;;
1603;SDS011;795;49.296;11.348;2022-07-10T07:15:10;5.43;;;2.10;;
1603;SDS011;795;49.296;11.348;2022-07-10T07:17:39;3.50;;;2.10;;
1603;SDS011;795;49.296;11.348;2022-07-10T07:20:25;3.90;;;2.00;;
1603;SDS011;795;49.296;11.348;2022-07-10T07:23:24;2.40;;;2.10;;
1603;SDS011;795;49.296;11.348;2022-07-10T07:25:52;3.87;;;1.63;;
1603;SDS011;795;49.296;11.348;2022-07-10T07:28:19;5.33;;;1.80;;
1603;SDS011;795;49.296;11.348;2022-07-10T07:30:47;3.97;;;1.50;;
1603;SDS011;795;49.296;11.348;2022-07-10T07:33:15;4.13;;;1.67;;
1603;SDS011;795;49.296;11.348;2022-07-10T07:35:42;3.90;;;2.10;;
1603;SDS011;795;49.296;11.348;2022-07-10T07:38:09;4.23;;;2.10;;
1603;SDS011;795;49.296;11.348;2022-07-10T07:40:36;2.30;;;1.60;;
1603;SDS011;795;49.296;11.348;2022-07-10T07:43:03;2.20;;;1.70;;
1603;SDS011;795;49.296;11.348;2022-07-10T07:45:31;2.70;;;1.80;;
1603;SDS011;795;49.296;11.348;2022-07-10T07:47:58;2.90;;;1.70;;
1603;SDS011;795;49.296;11.348;2022-07-10T07:50:29;1.90;;;1.53;;
1603;SDS011;795;49.296;11.348;2022-07-10T07:53:01;3.03;;;1.83;;
1603;SDS011;795;49.296;11.348;2022-07-10T07:55:32;5.87;;;1.40;;
1603;SDS011;795;49.296;11.348;2022-07-10T07:58:01;2.90;;;1.73;;
1603;SDS011;795;49.296;11.348;2022-07-10T08:04:05;4.30;;;1.87;;
1603;SDS011;795;49.296;11.348;2022-07-10T08:06:34;5.27;;;1.90;;
1603;SDS011;795;49.296;11.348;2022-07-10T08:09:03;4.10;;;2.07;;
1603;SDS011;795;49.296;11.348;2022-07-10T08:11:30;4.60;;;1.50;;
1603;SDS011;795;49.296;11.348;2022-07-10T08:13:57;3.70;;;1.97;;
1603;SDS011;795;49.296;11.348;2022-07-10T08:16:24;2.93;;;1.70;;
1603;SDS011;795;49.296;11.348;2022-07-10T08:18:51;3.07;;;1.80;;
1603;SDS011;795;49.296;11.348;2022-07-10T08:21:18;3.60;;;1.93;;
1603;SDS011;795;49.296;11.348;2022-07-10T08:23:45;2.73;;;1.70;;
1603;SDS011;795;49.296;11.348;2022-07-10T08:26:12;4.23;;;1.83;;
1603;SDS011;795;49.296;11.348;2022-07-10T08:28:39;8.53;;;2.87;;
1603;SDS011;795;49.296;11.348;2022-07-10T08:31:07;2.30;;;1.33;;
1603;SDS011;795;49.296;11.348;2022-07-10T08:33:41;8.47;;;1.30;;
1603;SDS011;795;49.296;11.348;2022-07-10T08:36:09;3.00;;;1.53;;
1603;SDS011;795;49.296;11.348;2022-07-10T08:38:56;2.70;;;1.50;;
1603;SDS011;795;49.296;11.348;2022-07-10T08:41:25;1.77;;;1.20;;
1603;SDS011;795;49.296;11.348;2022-07-10T08:43:53;3.23;;;1.70;;
1603;SDS011;795;49.296;11.348;2022-07-10T08:46:21;1.93;;;1.30;;
1603;SDS011;795;49.296;11.348;2022-07-10T08:48:49;3.10;;;1.30;;
1603;SDS011;795;49.296;11.348;2022-07-10T08:51:23;2.00;;;1.30;;
1603;SDS011;795;49.296;11.348;2022-07-10T08:54:19;2.80;;;1.37;;
1603;SDS011;795;49.296;11.348;2022-07-10T08:56:48;2.40;;;1.40;;
1603;SDS011;795;49.296;11.348;2022-07-10T08:59:16;2.93;;;1.40;;
1603;SDS011;795;49.296;11.348;2022-07-10T09:01:47;1.67;;;1.00;;
1603;SDS011;795;49.296;11.348;2022-07-10T09:04:19;4.40;;;1.93;;
1603;SDS011;795;49.296;11.348;2022-07-10T09:06:50;1.40;;;1.10;;
1603;SDS011;795;49.296;11.348;2022-07-10T09:09:20;1.73;;;1.53;;
1603;SDS011;795;49.296;11.348;2022-07-10T09:11:48;1.50;;;1.40;;
1603;SDS011;795;49.296;11.348;2022-07-10T09:14:25;1.70;;;1.20;;
1603;SDS011;795;49.296;11.348;2022-07-10T09:17:01;2.73;;;1.60;;
1603;SDS011;795;49.296;11.348;2022-07-10T09:19:29;5.27;;;1.30;;
1603;SDS011;795;49.296;11.348;2022-07-10T09:22:07;2.33;;;1.20;;
1603;SDS011;795;49.296;11.348;2022-07-10T09:24:37;3.53;;;1.40;;
1603;SDS011;795;49.296;11.348;2022-07-10T09:27:12;3.03;;;1.20;;
1603;SDS011;795;49.296;11.348;2022-07-10T09:29:45;2.97;;;1.27;;
1603;SDS011;795;49.296;11.348;2022-07-10T09:32:23;1.20;;;1.10;;
1603;SDS011;795;49.296;11.348;2022-07-10T09:34:50;3.33;;;1.40;;
1603;SDS011;795;49.296;11.348;2022-07-10T09:37:40;3.57;;;2.67;;
1603;SDS011;795;49.296;11.348;2022-07-10T09:40:09;2.63;;;1.50;;
1603;SDS011;795;49.296;11.348;2022-07-10T09:42:38;1.10;;;1.00;;
1603;SDS011;795;49.296;11.348;2022-07-10T09:47:40;1.70;;;0.90;;
1603;SDS011;795;49.296;11.348;2022-07-10T09:50:28;2.30;;;1.03;;
1603;SDS011;795;49.296;11.348;2022-07-10T09:53:04;1.97;;;1.47;;
1603;SDS011;795;49.296;11.348;2022-07-10T09:55:37;3.80;;;1.30;;
1603;SDS011;795;49.296;11.348;2022-07-10T09:58:06;1.50;;;1.23;;
1603;SDS011;795;49.296;11.348;2022-07-10T10:00:36;4.27;;;1.20;;
1603;SDS011;795;49.296;11.348;2022-07-10T10:03:08;4.43;;;1.20;;
1603;SDS011;795;49.296;11.348;2022-07-10T10:05:43;4.93;;;1.00;;
1603;SDS011;795;49.296;11.348;2022-07-10T10:08:25;1.50;;;1.37;;
1603;SDS011;795;49.296;11.348;2022-07-10T10:10:58;1.23;;;1.13;;
1603;SDS011;795;49.296;11.348;2022-07-10T10:13:29;3.27;;;1.20;;
1603;SDS011;795;49.296;11.348;2022-07-10T10:15:59;1.90;;;0.80;;
1603;SDS011;795;49.296;11.348;2022-07-10T10:18:29;1.10;;;1.00;;
1603;SDS011;795;49.296;11.348;2022-07-10T10:20:57;1.90;;;0.83;;
1603;SDS011;795;49.296;11.348;2022-07-10T10:23:25;1.07;;;1.00;;
1603;SDS011;795;49.296;11.348;2022-07-10T10:25:55;2.97;;;1.10;;
1603;SDS011;795;49.296;11.348;2022-07-10T10:28:23;1.27;;;1.10;;
1603;SDS011;795;49.296;11.348;2022-07-10T10:30:56;2.60;;;0.90;;
1603;SDS011;795;49.296;11.348;2022-07-10T10:36:09;1.20;;;0.90;;
1603;SDS011;795;49.296;11.348;2022-07-10T10:39:02;1.43;;;0.87;;
1603;SDS011;795;49.296;11.348;2022-07-10T10:49:20;2.97;;;1.37;;
1603;SDS011;795;49.296;11.348;2022-07-10T10:51:59;1.73;;;1.07;;
1603;SDS011;795;49.296;11.348;2022-07-10T10:54:31;5.43;;;1.10;;
1603;SDS011;795;49.296;11.348;2022-07-10T10:57:33;1.73;;;0.90;;
1603;SDS011;795;49.296;11.348;2022-07-10T11:00:14;1.00;;;0.80;;
1603;SDS011;795;49.296;11.348;2022-07-10T11:05:50;0.80;;;0.80;;
1603;SDS011;795;49.296;11.348;2022-07-10T11:13:57;1.53;;;1.10;;
1603;SDS011;795;49.296;11.348;2022-07-10T11:16:25;2.10;;;1.03;;
1603;SDS011;795;49.296;11.348;2022-07-10T11:18:52;3.07;;;1.30;;
1603;SDS011;795;49.296;11.348;2022-07-10T11:21:24;3.33;;;1.40;;
1603;SDS011;795;49.296;11.348;2022-07-10T11:24:11;2.63;;;1.13;;
1603;SDS011;795;49.296;11.348;2022-07-10T11:27:14;2.87;;;1.80;;
1603;SDS011;795;49.296;11.348;2022-07-10T11:30:24;2.37;;;1.20;;
1603;SDS011;795;49.296;11.348;2022-07-10T11:32:52;3.47;;;2.17;;
1603;SDS011;795;49.296;11.348;2022-07-10T11:35:19;2.37;;;1.30;;
1603;SDS011;795;49.296;11.348;2022-07-10T11:37:53;1.73;;;1.17;;
1603;SDS011;795;49.296;11.348;2022-07-10T11:40:20;2.27;;;1.50;;
1603;SDS011;795;49.296;11.348;2022-07-10T11:42:51;1.77;;;1.33;;
1603;SDS011;795;49.296;11.348;2022-07-10T11:45:27;7.90;;;1.20;;
1603;SDS011;795;49.296;11.348;2022-07-10T11:47:57;2.40;;;1.30;;
1603;SDS011;795;49.296;11.348;2022-07-10T11:50:26;4.63;;;1.50;;
1603;SDS011;795;49.296;11.348;2022-07-10T11:52:54;1.20;;;1.00;;
1603;SDS011;795;49.296;11.348;2022-07-10T11:55:22;1.17;;;1.00;;
1603;SDS011;795;49.296;11.348;2022-07-10T11:57:52;8.67;;;1.57;;
1603;SDS011;795;49.296;11.348;2022-07-10T12:00:26;3.60;;;1.23;;
1603;SDS011;795;49.296;11.348;2022-07-10T12:02:57;1.47;;;1.13;;
1603;SDS011;795;49.296;11.348;2022-07-10T12:05:54;3.90;;;1.23;;
1603;SDS011;795;49.296;11.348;2022-07-10T12:08:21;1.20;;;1.10;;
1603;SDS011;795;49.296;11.348;2022-07-10T12:10:49;2.93;;;1.20;;
1603;SDS011;795;49.296;11.348;2022-07-10T12:13:17;1.77;;;1.33;;
1603;SDS011;795;49.296;11.348;2022-07-10T12:15:45;2.83;;;1.13;;
1603;SDS011;795;49.296;11.348;2022-07-10T12:18:16;3.90;;;1.57;;
1603;SDS011;795;49.296;11.348;2022-07-10T12:20:47;5.10;;;1.40;;
1603;SDS011;795;49.296;11.348;2022-07-10T12:23:19;4.30;;;1.30;;
1603;SDS011;795;49.296;11.348;2022-07-10T12:25:49;2.80;;;1.30;;
1603;SDS011;795;49.296;11.348;2022-07-10T12:28:16;1.47;;;1.20;;
1603;SDS011;795;49.296;11.348;2022-07-10T12:30:48;3.07;;;2.77;;
1603;SDS011;795;49.296;11.348;2022-07-10T12:33:18;1.07;;;0.90;;
1603;SDS011;795;49.296;11.348;2022-07-10T12:35:53;1.10;;;0.90;;
1603;SDS011;795;49.296;11.348;2022-07-10T12:38:27;1.63;;;1.23;;
1603;SDS011;795;49.296;11.348;2022-07-10T12:41:07;1.23;;;1.00;;
1603;SDS011;795;49.296;11.348;2022-07-10T12:43:37;1.70;;;1.20;;
1603;SDS011;795;49.296;11.348;2022-07-10T12:49:04;2.00;;;1.20;;
1603;SDS011;795;49.296;11.348;2022-07-10T12:51:47;2.50;;;1.17;;
1603;SDS011;795;49.296;11.348;2022-07-10T12:54:35;1.40;;;1.13;;
1603;SDS011;795;49.296;11.348;2022-07-10T12:57:04;1.60;;;1.13;;
1603;SDS011;795;49.296;11.348;2022-07-10T12:59:33;1.57;;;1.00;;
1603;SDS011;795;49.296;11.348;2022-07-10T13:02:16;1.93;;;1.20;;
1603;SDS011;795;49.296;11.348;2022-07-10T13:04:55;1.23;;;1.00;;
1603;SDS011;795;49.296;11.348;2022-07-10T13:07:34;1.37;;;1.00;;
1603;SDS011;795;49.296;11.348;2022-07-10T13:10:04;2.23;;;1.00;;
1603;SDS011;795;49.296;11.348;2022-07-10T13:12:34;4.00;;;1.67;;
1603;SDS011;795;49.296;11.348;2022-07-10T13:15:04;2.50;;;1.27;;
1603;SDS011;795;49.296;11.348;2022-07-10T13:17:32;1.60;;;1.30;;
1603;SDS011;795;49.296;11.348;2022-07-10T13:19:59;1.20;;;1.10;;
1603;SDS011;795;49.296;11.348;2022-07-10T13:22:26;1.37;;;1.10;;
1603;SDS011;795;49.296;11.348;2022-07-10T13:24:54;2.40;;;0.90;;
1603;SDS011;795;49.296;11.348;2022-07-10T13:27:20;2.53;;;1.00;;
1603;SDS011;795;49.296;11.348;2022-07-10T13:29:49;1.13;;;0.93;;
1603;SDS011;795;49.296;11.348;2022-07-10T13:32:16;1.20;;;1.10;;
1603;SDS011;795;49.296;11.348;2022-07-10T13:34:43;1.23;;;1.10;;
1603;SDS011;795;49.296;11.348;2022-07-10T13:37:10;1.33;;;1.17;;
1603;SDS011;795;49.296;11.348;2022-07-10T13:39:41;1.20;;;1.10;;
1603;SDS011;795;49.296;11.348;2022-07-10T13:42:08;1.20;;;1.10;;
1603;SDS011;795;49.296;11.348;2022-07-10T13:44:34;2.50;;;1.00;;
1603;SDS011;795;49.296;11.348;2022-07-10T13:47:01;2.10;;;1.00;;
1603;SDS011;795;49.296;11.348;2022-07-10T13:49:29;1.93;;;1.07;;
1603;SDS011;795;49.296;11.348;2022-07-10T13:51:56;2.10;;;1.20;;
1603;SDS011;795;49.296;11.348;2022-07-10T13:54:24;1.10;;;1.00;;
1603;SDS011;795;49.296;11.348;2022-07-10T13:56:51;1.50;;;1.03;;
1603;SDS011;795;49.296;11.348;2022-07-10T13:59:18;3.30;;;1.10;;
1603;SDS011;795;49.296;11.348;2022-07-10T14:01:45;2.40;;;1.33;;
1603;SDS011;795;49.296;11.348;2022-07-10T14:04:13;2.90;;;1.00;;
1603;SDS011;795;49.296;11.348;2022-07-10T14:06:40;1.23;;;1.10;;
1603;SDS011;795;49.296;11.348;2022-07-10T14:09:07;1.30;;;1.03;;
1603;SDS011;795;49.296;11.348;2022-07-10T14:11:34;1.97;;;1.20;;
1603;SDS011;795;49.296;11.348;2022-07-10T14:14:01;3.13;;;0.97;;
1603;SDS011;795;49.296;11.348;2022-07-10T14:16:28;1.43;;;1.00;;
1603;SDS011;795;49.296;11.348;2022-07-10T14:18:56;2.30;;;0.87;;
1603;SDS011;795;49.296;11.348;2022-07-10T14:21:23;0.93;;;0.93;;
1603;SDS011;795;49.296;11.348;2022-07-10T14:23:53;1.27;;;1.00;;
1603;SDS011;795;49.296;11.348;2022-07-10T14:26:22;1.30;;;1.20;;
1603;SDS011;795;49.296;11.348;2022-07-10T14:28:49;2.03;;;0.90;;
1603;SDS011;795;49.296;11.348;2022-07-10T14:31:17;1.90;;;1.27;;
1603;SDS011;795;49.296;11.348;2022-07-10T14:33:44;1.40;;;1.00;;
1603;SDS011;795;49.296;11.348;2022-07-10T14:36:12;0.97;;;0.90;;
1603;SDS011;795;49.296;11.348;2022-07-10T14:38:39;1.53;;;1.10;;
1603;SDS011;795;49.296;11.348;2022-07-10T14:41:07;1.33;;;1.00;;
1603;SDS011;795;49.296;11.348;2022-07-10T14:43:34;1.07;;;1.00;;
1603;SDS011;795;49.296;11.348;2022-07-10T14:46:02;1.60;;;0.97;;
1603;SDS011;795;49.296;11.348;2022-07-10T14:48:31;0.80;;;0.70;;
1603;SDS011;795;49.296;11.348;2022-07-10T14:51:00;1.40;;;1.00;;
1603;SDS011;795;49.296;11.348;2022-07-10T14:53:28;1.43;;;1.10;;
1603;SDS011;795;49.296;11.348;2022-07-10T14:55:56;1.23;;;0.90;;
1603;SDS011;795;49.296;11.348;2022-07-10T14:58:23;1.13;;;1.03;;
1603;SDS011;795;49.296;11.348;2022-07-10T15:00:51;1.00;;;0.90;;
1603;SDS011;795;49.296;11.348;2022-07-10T15:03:19;2.20;;;1.63;;
1603;SDS011;795;49.296;11.348;2022-07-10T15:05:47;1.30;;;1.10;;
1603;SDS011;795;49.296;11.348;2022-07-10T15:08:18;2.70;;;1.30;;
1603;SDS011;795;49.296;11.348;2022-07-10T15:10:50;3.17;;;1.10;;
1603;SDS011;795;49.296;11.348;2022-07-10T15:13:18;2.60;;;1.70;;
1603;SDS011;795;49.296;11.348;2022-07-10T15:15:45;1.47;;;1.00;;
1603;SDS011;795;49.296;11.348;2022-07-10T15:18:14;1.80;;;1.10;;
1603;SDS011;795;49.296;11.348;2022-07-10T15:20:42;1.50;;;1.20;;
1603;SDS011;795;49.296;11.348;2022-07-10T15:23:10;3.27;;;1.17;;
1603;SDS011;795;49.296;11.348;2022-07-10T15:25:37;1.00;;;1.00;;
1603;SDS011;795;49.296;11.348;2022-07-10T15:28:06;1.23;;;0.80;;
1603;SDS011;795;49.296;11.348;2022-07-10T15:30:37;1.83;;;0.90;;
1603;SDS011;795;49.296;11.348;2022-07-10T15:33:05;6.53;;;1.33;;
1603;SDS011;795;49.296;11.348;2022-07-10T15:35:32;1.00;;;0.90;;
1603;SDS011;795;49.296;11.348;2022-07-10T15:38:02;4.13;;;1.90;;
1603;SDS011;795;49.296;11.348;2022-07-10T15:40:32;8.63;;;3.90;;
1603;SDS011;795;49.296;11.348;2022-07-10T15:42:59;4.30;;;1.40;;
1603;SDS011;795;49.296;11.348;2022-07-10T15:45:26;2.70;;;1.13;;
1603;SDS011;795;49.296;11.348;2022-07-10T15:47:55;1.83;;;1.50;;
1603;SDS011;795;49.296;11.348;2022-07-10T15:50:22;0.80;;;0.80;;
1603;SDS011;795;49.296;11.348;2022-07-10T15:52:49;2.53;;;1.60;;
1603;SDS011;795;49.296;11.348;2022-07-10T15:55:16;5.63;;;1.20;;